Time;durP1;ratioP1;P1;durP2;ratioP2;P2;SDS_P1;SDS_P2;PMS_P1;PMS_P2;Temp;Humidity;BMP_temperature;BMP_pressure;BME280_temperature;BME280_humidity;BME280_pressure;Samples;Min_cycle;Max_cycle;Signal;HPM_P1;HPM_P2
2022/07/31 00:00:46;;;;;;;6.28;3.70;;;;;;;;;;4976986;28;20191;-72
2022/07/31 00:03:12;;;;;;;7.93;3.63;;;;;;;;;;4959337;28;20471;-73
2022/07/31 00:05:38;;;;;;;5.65;3.70;;;;;;;;;;4976934;28;20113;-72
2022/07/31 00:08:04;;;;;;;6.85;4.28;;;;;;;;;;4977138;28;20106;-70
2022/07/31 00:10:30;;;;;;;6.65;3.70;;;;;;;;;;4977362;28;20034;-73
2022/07/31 00:12:56;;;;;;;7.65;4.00;;;;;;;;;;4976788;28;20037;-71
2022/07/31 00:15:23;;;;;;;8.07;4.10;;;;;;;;;;4977008;28;20031;-72
2022/07/31 00:17:49;;;;;;;5.88;4.07;;;;;;;;;;4976694;28;20037;-74
2022/07/31 00:20:16;;;;;;;6.72;3.65;;;;;;;;;;4976690;28;20110;-71
2022/07/31 00:22:43;;;;;;;9.05;4.72;;;;;;;;;;4977040;28;20112;-71
2022/07/31 00:25:10;;;;;;;7.20;4.10;;;;;;;;;;4976569;28;20076;-72
2022/07/31 00:27:36;;;;;;;7.13;3.97;;;;;;;;;;4977071;28;20034;-71
2022/07/31 00:30:02;;;;;;;6.28;4.00;;;;;;;;;;4976393;28;20030;-71
2022/07/31 00:32:28;;;;;;;6.32;4.03;;;;;;;;;;4976419;28;20397;-73
2022/07/31 00:34:54;;;;;;;7.90;4.15;;;;;;;;;;4976325;28;20027;-72
2022/07/31 00:37:20;;;;;;;7.90;3.75;;;;;;;;;;4976353;28;20031;-71
2022/07/31 00:39:46;;;;;;;6.70;3.83;;;;;;;;;;4976281;28;20023;-75
2022/07/31 00:42:19;;;;;;;5.93;3.60;;;;;;;;;;4976243;28;20027;-71
2022/07/31 00:44:46;;;;;;;6.63;3.70;;;;;;;;;;4976461;28;20035;-70
2022/07/31 00:47:12;;;;;;;6.18;4.00;;;;;;;;;;4958821;28;20115;-73
2022/07/31 00:49:38;;;;;;;5.25;3.67;;;;;;;;;;4976061;28;20022;-70
2022/07/31 00:52:04;;;;;;;6.78;3.75;;;;;;;;;;4976619;28;20019;-71
2022/07/31 00:54:30;;;;;;;7.15;4.22;;;;;;;;;;4976057;28;20033;-71
2022/07/31 00:56:56;;;;;;;7.85;3.88;;;;;;;;;;4976240;28;20452;-71
2022/07/31 00:59:22;;;;;;;6.85;4.03;;;;;;;;;;4975895;28;20489;-69
2022/07/31 01:01:48;;;;;;;7.22;4.13;;;;;;;;;;4975721;28;20054;-73
2022/07/31 01:04:17;;;;;;;5.25;3.67;;;;;;;;;;4975777;28;20051;-70
2022/07/31 01:06:43;;;;;;;6.22;3.75;;;;;;;;;;4976338;28;20022;-72
2022/07/31 01:09:09;;;;;;;6.80;3.90;;;;;;;;;;4976016;28;20121;-70
2022/07/31 01:11:44;;;;;;;5.75;3.63;;;;;;;;;;4975625;28;20485;-71
2022/07/31 01:14:10;;;;;;;6.60;3.67;;;;;;;;;;4975914;28;20090;-69
2022/07/31 01:16:49;;;;;;;7.63;4.00;;;;;;;;;;4975524;28;20027;-70
2022/07/31 01:19:28;;;;;;;5.40;3.55;;;;;;;;;;4976043;28;20026;-71
2022/07/31 01:22:03;;;;;;;6.32;3.92;;;;;;;;;;4976619;28;20053;-72
2022/07/31 01:24:41;;;;;;;7.97;3.67;;;;;;;;;;4975667;28;20410;-74
2022/07/31 01:27:11;;;;;;;5.60;3.40;;;;;;;;;;4975440;28;20057;-72
2022/07/31 01:29:37;;;;;;;;;;;;;;;;;;4958210;28;20386;-72
2022/07/31 01:32:05;;;;;;;4.43;3.33;;;;;;;;;;4957953;28;19964;-72
2022/07/31 01:34:34;;;;;;;5.70;3.42;;;;;;;;;;4975514;28;20488;-72
2022/07/31 01:37:05;;;;;;;6.38;4.13;;;;;;;;;;4975503;28;20105;-73
2022/07/31 01:39:33;;;;;;;5.20;3.72;;;;;;;;;;4975259;28;20030;-73
2022/07/31 01:42:01;;;;;;;6.00;3.55;;;;;;;;;;4975263;28;20031;-69
2022/07/31 01:44:27;;;;;;;5.95;3.78;;;;;;;;;;4975046;28;20037;-70
2022/07/31 01:46:55;;;;;;;8.60;4.07;;;;;;;;;;4975027;28;20023;-71
2022/07/31 01:49:22;;;;;;;9.35;4.55;;;;;;;;;;4957673;28;20052;-72
2022/07/31 01:51:49;;;;;;;7.43;4.47;;;;;;;;;;4974970;28;20033;-72
2022/07/31 01:54:17;;;;;;;8.75;4.68;;;;;;;;;;4974972;28;20096;-72
2022/07/31 01:56:45;;;;;;;5.80;4.22;;;;;;;;;;4975222;28;20038;-71
2022/07/31 01:59:13;;;;;;;9.15;4.43;;;;;;;;;;4974854;28;20489;-71
2022/07/31 02:01:39;;;;;;;7.32;4.00;;;;;;;;;;4975029;28;20034;-74
2022/07/31 02:04:06;;;;;;;7.07;4.63;;;;;;;;;;4974536;28;20042;-72
2022/07/31 02:06:32;;;;;;;9.52;4.45;;;;;;;;;;4974786;28;20023;-71
2022/07/31 02:08:59;;;;;;;6.93;4.50;;;;;;;;;;4974757;28;20101;-69
2022/07/31 02:11:25;;;;;;;7.07;4.20;;;;;;;;;;4974717;28;20059;-71
2022/07/31 02:13:52;;;;;;;8.05;4.47;;;;;;;;;;4974646;28;20497;-71
2022/07/31 02:16:18;;;;;;;6.78;4.57;;;;;;;;;;4974898;28;20392;-70
2022/07/31 02:18:46;;;;;;;8.38;5.00;;;;;;;;;;4974584;28;20041;-73
2022/07/31 02:21:13;;;;;;;7.72;4.88;;;;;;;;;;4974828;28;20433;-70
2022/07/31 02:23:39;;;;;;;7.35;4.63;;;;;;;;;;4974936;28;20496;-72
2022/07/31 02:26:06;;;;;;;7.38;4.70;;;;;;;;;;4974487;28;20436;-71
2022/07/31 02:28:34;;;;;;;6.68;4.60;;;;;;;;;;4974471;28;20050;-71
2022/07/31 02:31:00;;;;;;;7.28;4.70;;;;;;;;;;4974463;28;20489;-75
2022/07/31 02:33:27;;;;;;;7.13;4.50;;;;;;;;;;4974396;28;20054;-71
2022/07/31 02:35:54;;;;;;;8.20;4.82;;;;;;;;;;4974415;28;20110;-72
2022/07/31 02:38:21;;;;;;;7.78;4.53;;;;;;;;;;4974645;28;20031;-72
2022/07/31 02:40:48;;;;;;;7.63;4.40;;;;;;;;;;4974574;28;20031;-72
2022/07/31 02:43:14;;;;;;;6.45;4.47;;;;;;;;;;4956876;28;20401;-72
2022/07/31 02:45:41;;;;;;;7.82;4.15;;;;;;;;;;4974606;28;20031;-74
2022/07/31 02:48:08;;;;;;;6.18;4.32;;;;;;;;;;4974308;28;20027;-71
2022/07/31 02:50:34;;;;;;;8.52;4.55;;;;;;;;;;4974248;28;20030;-70
2022/07/31 02:53:00;;;;;;;6.72;4.60;;;;;;;;;;4974251;28;20107;-71
2022/07/31 02:55:26;;;;;;;6.32;4.60;;;;;;;;;;4978195;28;20058;-71
2022/07/31 02:57:52;;;;;;;5.43;4.18;;;;;;;;;;4978434;28;20454;-70
2022/07/31 03:00:25;;;;;;;7.82;4.70;;;;;;;;;;4978019;28;20065;-74
2022/07/31 03:02:52;;;;;;;7.43;3.90;;;;;;;;;;4978584;28;20027;-70
2022/07/31 03:05:19;;;;;;;8.60;4.65;;;;;;;;;;4958693;29;20047;-70
2022/07/31 03:07:45;;;;;;;7.05;4.35;;;;;;;;;;4958647;29;20034;-72
2022/07/31 03:10:14;;;;;;;7.25;4.65;;;;;;;;;;4959183;29;20374;-72
2022/07/31 03:12:42;;;;;;;7.22;4.28;;;;;;;;;;4958604;29;20070;-71
2022/07/31 03:15:09;;;;;;;6.50;4.20;;;;;;;;;;4958525;29;20038;-71
2022/07/31 03:17:37;;;;;;;6.90;4.40;;;;;;;;;;4958454;29;20102;-73
2022/07/31 03:20:03;;;;;;;8.93;4.60;;;;;;;;;;4958448;29;20042;-71
2022/07/31 03:22:29;;;;;;;7.78;4.85;;;;;;;;;;4959098;29;20023;-73
2022/07/31 03:24:56;;;;;;;7.85;5.00;;;;;;;;;;4941128;29;20055;-72
2022/07/31 03:27:22;;;;;;;6.53;4.25;;;;;;;;;;4958329;29;20030;-72
2022/07/31 03:29:48;;;;;;;6.95;4.65;;;;;;;;;;4958359;29;20024;-71
2022/07/31 03:32:14;;;;;;;5.07;3.90;;;;;;;;;;4958525;29;20438;-72
2022/07/31 03:34:40;;;;;;;7.32;4.10;;;;;;;;;;4958186;29;20070;-72
2022/07/31 03:37:07;;;;;;;7.22;4.75;;;;;;;;;;4958136;29;20038;-72
2022/07/31 03:39:33;;;;;;;8.27;4.78;;;;;;;;;;4958077;29;20124;-71
2022/07/31 03:42:00;;;;;;;8.02;4.60;;;;;;;;;;4958106;29;20027;-71
2022/07/31 03:44:27;;;;;;;6.55;4.32;;;;;;;;;;4957960;29;20474;-72
2022/07/31 03:46:54;;;;;;;5.97;4.30;;;;;;;;;;4940708;29;20070;-71
2022/07/31 03:49:20;;;;;;;6.38;4.53;;;;;;;;;;4958203;29;20501;-72
2022/07/31 03:51:46;;;;;;;10.43;4.97;;;;;;;;;;4958177;29;20023;-71
2022/07/31 03:54:12;;;;;;;6.40;3.95;;;;;;;;;;4957849;29;20505;-70
2022/07/31 03:56:40;;;;;;;6.68;4.13;;;;;;;;;;4957838;29;20086;-72
2022/07/31 03:59:06;;;;;;;8.20;4.78;;;;;;;;;;4957765;29;20035;-71
2022/07/31 04:01:33;;;;;;;8.13;3.97;;;;;;;;;;4957648;29;20031;-71
2022/07/31 04:03:59;;;;;;;8.45;5.32;;;;;;;;;;4945373;28;20055;-71
2022/07/31 04:06:25;;;;;;;7.72;4.80;;;;;;;;;;4958103;29;20101;-72
2022/07/31 04:08:51;;;;;;;8.13;5.47;;;;;;;;;;4957578;29;20023;-72
2022/07/31 04:11:17;;;;;;;9.38;4.82;;;;;;;;;;4957791;29;20058;-72
2022/07/31 04:13:43;;;;;;;6.55;4.38;;;;;;;;;;4957488;29;20042;-73
2022/07/31 04:16:09;;;;;;;7.28;4.97;;;;;;;;;;4957698;29;20027;-71
2022/07/31 04:18:35;;;;;;;7.90;4.93;;;;;;;;;;4957390;29;20454;-72
2022/07/31 04:21:01;;;;;;;6.25;4.28;;;;;;;;;;4957342;29;20102;-71
2022/07/31 04:23:27;;;;;;;8.13;5.03;;;;;;;;;;4957686;29;20035;-72
2022/07/31 04:25:53;;;;;;;8.70;4.80;;;;;;;;;;4955997;29;20488;-70
2022/07/31 04:28:19;;;;;;;8.02;4.78;;;;;;;;;;4957471;29;20082;-69
2022/07/31 04:30:45;;;;;;;6.75;4.75;;;;;;;;;;4957433;29;20027;-72
2022/07/31 04:33:11;;;;;;;7.75;4.93;;;;;;;;;;4957106;29;20390;-69
2022/07/31 04:35:37;;;;;;;8.35;4.80;;;;;;;;;;4957090;29;20023;-71
2022/07/31 04:38:05;;;;;;;7.30;4.65;;;;;;;;;;4957083;28;20394;-72
2022/07/31 04:40:31;;;;;;;8.68;5.10;;;;;;;;;;4956967;29;20039;-71
2022/07/31 04:42:57;;;;;;;9.43;4.97;;;;;;;;;;4957150;29;20034;-73
2022/07/31 04:45:23;;;;;;;6.47;4.40;;;;;;;;;;4956888;29;20131;-70
2022/07/31 04:47:49;;;;;;;7.45;5.20;;;;;;;;;;4957156;29;20050;-72
2022/07/31 04:50:15;;;;;;;7.57;4.60;;;;;;;;;;4956837;29;20031;-73
2022/07/31 04:52:41;;;;;;;7.03;4.38;;;;;;;;;;4957331;29;20023;-73
2022/07/31 04:55:07;;;;;;;7.57;4.53;;;;;;;;;;4956767;29;20035;-73
2022/07/31 04:57:33;;;;;;;9.30;5.22;;;;;;;;;;4956728;29;20066;-69
2022/07/31 04:59:59;;;;;;;7.15;4.47;;;;;;;;;;4956545;29;20050;-69
2022/07/31 05:02:25;;;;;;;7.43;4.47;;;;;;;;;;4956485;29;20462;-73
2022/07/31 05:04:51;;;;;;;6.95;4.88;;;;;;;;;;4972017;28;20057;-72
2022/07/31 05:07:17;;;;;;;7.22;4.32;;;;;;;;;;4976072;28;20023;-72
2022/07/31 05:09:43;;;;;;;7.88;5.20;;;;;;;;;;4975750;28;20507;-71
2022/07/31 05:12:09;;;;;;;7.65;5.18;;;;;;;;;;4975706;28;20023;-70
2022/07/31 05:14:35;;;;;;;7.60;4.95;;;;;;;;;;4975626;28;20027;-73
2022/07/31 05:17:01;;;;;;;8.70;5.13;;;;;;;;;;4975082;28;20054;-70
2022/07/31 05:19:28;;;;;;;8.43;5.05;;;;;;;;;;4975792;28;20065;-70
2022/07/31 05:21:56;;;;;;;7.18;4.65;;;;;;;;;;4975756;28;20049;-70
2022/07/31 05:24:23;;;;;;;7.53;4.88;;;;;;;;;;4976200;28;20031;-71
2022/07/31 05:26:49;;;;;;;11.05;5.13;;;;;;;;;;4975438;28;20507;-72
2022/07/31 05:29:15;;;;;;;6.63;4.70;;;;;;;;;;4975408;28;20026;-71
2022/07/31 05:31:41;;;;;;;6.80;4.82;;;;;;;;;;4975339;28;20023;-71
2022/07/31 05:34:07;;;;;;;5.40;3.95;;;;;;;;;;4975330;28;20396;-74
2022/07/31 05:36:33;;;;;;;8.32;5.03;;;;;;;;;;4975249;28;20478;-71
2022/07/31 05:38:59;;;;;;;6.55;4.75;;;;;;;;;;4975239;28;20035;-70
2022/07/31 05:41:25;;;;;;;8.07;4.90;;;;;;;;;;4975236;28;20031;-70
2022/07/31 05:43:51;;;;;;;6.32;4.45;;;;;;;;;;4975084;28;20129;-72
2022/07/31 05:46:17;;;;;;;6.35;4.68;;;;;;;;;;4975368;28;20023;-70
2022/07/31 05:48:44;;;;;;;8.32;5.00;;;;;;;;;;4975620;28;20095;-70
2022/07/31 05:51:10;;;;;;;8.75;4.57;;;;;;;;;;4975042;28;20098;-70
2022/07/31 05:53:37;;;;;;;8.80;4.75;;;;;;;;;;4975540;28;20023;-72
2022/07/31 05:56:04;;;;;;;7.05;4.55;;;;;;;;;;4974899;28;20029;-72
2022/07/31 05:58:30;;;;;;;7.93;4.80;;;;;;;;;;4974922;28;20512;-73
2022/07/31 06:00:56;;;;;;;8.25;5.40;;;;;;;;;;4974752;28;20030;-70
2022/07/31 06:03:23;;;;;;;7.60;4.63;;;;;;;;;;4974808;28;20061;-72
2022/07/31 06:05:49;;;;;;;8.15;5.43;;;;;;;;;;4975380;28;20086;-74
2022/07/31 06:08:15;;;;;;;6.53;4.43;;;;;;;;;;4974755;28;20023;-73
2022/07/31 06:10:41;;;;;;;7.50;5.20;;;;;;;;;;4974710;28;20441;-71
2022/07/31 06:13:07;;;;;;;9.05;5.35;;;;;;;;;;4974975;28;20449;-71
2022/07/31 06:15:34;;;;;;;8.35;4.85;;;;;;;;;;4974605;28;20105;-71
2022/07/31 06:18:00;;;;;;;7.80;5.03;;;;;;;;;;4974878;28;20042;-71
2022/07/31 06:20:26;;;;;;;7.13;5.25;;;;;;;;;;4957209;28;20023;-70
2022/07/31 06:22:52;;;;;;;7.57;4.85;;;;;;;;;;4974978;28;20031;-73
2022/07/31 06:25:18;;;;;;;8.50;4.97;;;;;;;;;;4974808;28;20030;-69
2022/07/31 06:27:44;;;;;;;8.45;4.90;;;;;;;;;;4974586;28;20488;-70
2022/07/31 06:30:11;;;;;;;6.38;4.43;;;;;;;;;;4974503;28;20090;-72
2022/07/31 06:32:37;;;;;;;7.07;4.97;;;;;;;;;;4974382;28;20026;-71
2022/07/31 06:35:04;;;;;;;6.75;4.70;;;;;;;;;;4974373;28;20485;-73
2022/07/31 06:37:30;;;;;;;7.82;5.43;;;;;;;;;;4974446;28;20026;-71
2022/07/31 06:39:56;;;;;;;8.38;5.05;;;;;;;;;;4974676;28;20425;-72
2022/07/31 06:42:23;;;;;;;7.07;4.63;;;;;;;;;;4974357;28;20027;-73
2022/07/31 06:44:49;;;;;;;8.48;5.40;;;;;;;;;;4956924;28;20031;-69
2022/07/31 06:47:15;;;;;;;7.05;4.88;;;;;;;;;;4974574;28;20438;-74
2022/07/31 06:49:41;;;;;;;6.35;5.00;;;;;;;;;;4974301;28;20030;-73
2022/07/31 06:52:07;;;;;;;7.78;4.55;;;;;;;;;;4974238;28;20050;-71
2022/07/31 06:54:33;;;;;;;7.57;4.53;;;;;;;;;;4974273;28;20034;-70
2022/07/31 06:56:59;;;;;;;8.55;4.82;;;;;;;;;;4974512;28;20027;-73
2022/07/31 06:59:25;;;;;;;7.50;4.88;;;;;;;;;;4974484;28;20050;-71
2022/07/31 07:01:51;;;;;;;8.05;4.55;;;;;;;;;;4974141;28;20086;-72
2022/07/31 07:04:18;;;;;;;7.35;4.93;;;;;;;;;;4973634;28;20050;-70
2022/07/31 07:06:44;;;;;;;8.05;5.28;;;;;;;;;;4974124;28;20435;-72
2022/07/31 07:09:10;;;;;;;7.13;4.68;;;;;;;;;;4956717;28;20371;-70
2022/07/31 07:11:36;;;;;;;8.40;5.30;;;;;;;;;;4974086;28;20030;-71
2022/07/31 07:14:02;;;;;;;7.55;4.90;;;;;;;;;;4974111;28;20026;-71
2022/07/31 07:16:28;;;;;;;7.22;5.03;;;;;;;;;;4974358;28;20065;-73
2022/07/31 07:18:54;;;;;;;6.60;4.70;;;;;;;;;;4974045;28;20054;-72
2022/07/31 07:21:20;;;;;;;7.40;4.63;;;;;;;;;;4974010;28;20034;-72
2022/07/31 07:23:46;;;;;;;8.27;5.32;;;;;;;;;;4974443;28;20026;-71
2022/07/31 07:26:12;;;;;;;6.43;4.45;;;;;;;;;;4974216;28;20098;-70
2022/07/31 07:28:38;;;;;;;7.68;4.95;;;;;;;;;;4973939;28;20023;-71
2022/07/31 07:31:04;;;;;;;6.70;4.50;;;;;;;;;;4973883;28;20465;-71
2022/07/31 07:33:31;;;;;;;6.95;4.72;;;;;;;;;;4973943;28;20034;-71
2022/07/31 07:35:57;;;;;;;8.90;5.18;;;;;;;;;;4973829;28;20500;-72
2022/07/31 07:38:23;;;;;;;7.68;4.45;;;;;;;;;;4973896;28;20027;-72
2022/07/31 07:40:49;;;;;;;7.57;4.70;;;;;;;;;;4976779;28;20031;-71
2022/07/31 07:43:15;;;;;;;8.70;5.65;;;;;;;;;;4977838;28;20023;-74
2022/07/31 07:45:41;;;;;;;7.57;5.03;;;;;;;;;;4977333;28;20033;-72
2022/07/31 07:48:07;;;;;;;9.88;5.05;;;;;;;;;;4977561;28;20027;-71
2022/07/31 07:50:33;;;;;;;8.35;5.13;;;;;;;;;;4977231;28;20030;-72
2022/07/31 07:53:00;;;;;;;9.32;5.15;;;;;;;;;;4977216;28;20050;-69
2022/07/31 07:55:26;;;;;;;7.38;4.88;;;;;;;;;;4977189;28;20037;-71
2022/07/31 07:57:52;;;;;;;7.43;5.20;;;;;;;;;;4977135;28;20031;-71
2022/07/31 08:00:18;;;;;;;8.52;5.15;;;;;;;;;;4976957;28;20054;-70
2022/07/31 08:02:45;;;;;;;6.95;5.00;;;;;;;;;;4976967;28;20034;-71
2022/07/31 08:05:11;;;;;;;8.27;5.32;;;;;;;;;;4976848;28;20054;-71
2022/07/31 08:07:38;;;;;;;8.10;5.05;;;;;;;;;;4976896;28;20030;-72
2022/07/31 08:10:05;;;;;;;12.15;5.72;;;;;;;;;;4976823;28;20031;-69
2022/07/31 08:12:32;;;;;;;12.70;6.50;;;;;;;;;;4976821;28;20030;-72
2022/07/31 08:14:58;;;;;;;9.95;4.82;;;;;;;;;;4976774;28;20080;-71
2022/07/31 08:17:24;;;;;;;10.27;5.25;;;;;;;;;;4976978;28;20106;-69
2022/07/31 08:19:50;;;;;;;8.55;5.05;;;;;;;;;;4976690;28;20031;-72
2022/07/31 08:22:17;;;;;;;7.63;5.40;;;;;;;;;;4976651;28;20158;-71
2022/07/31 08:24:43;;;;;;;7.60;4.78;;;;;;;;;;4977047;28;20031;-70
2022/07/31 08:27:24;;;;;;;8.60;5.30;;;;;;;;;;4976587;28;20023;-71
2022/07/31 08:30:00;;;;;;;8.77;5.57;;;;;;;;;;4977112;28;20023;-70
2022/07/31 08:32:26;;;;;;;8.82;5.75;;;;;;;;;;4977119;28;20023;-72
2022/07/31 08:34:53;;;;;;;9.73;5.93;;;;;;;;;;4976449;28;20035;-70
2022/07/31 08:37:19;;;;;;;9.77;5.28;;;;;;;;;;4976333;28;20114;-72
2022/07/31 08:39:46;;;;;;;7.28;4.75;;;;;;;;;;4976644;28;20473;-70
2022/07/31 08:42:13;;;;;;;7.28;5.10;;;;;;;;;;4976286;28;20023;-73
2022/07/31 08:44:39;;;;;;;17.40;6.90;;;;;;;;;;4976704;28;20113;-70
2022/07/31 08:47:06;;;;;;;8.07;5.53;;;;;;;;;;4976399;28;20026;-73
2022/07/31 08:49:36;;;;;;;8.00;5.60;;;;;;;;;;4976177;28;20490;-70
2022/07/31 08:52:02;;;;;;;9.32;5.20;;;;;;;;;;4974865;28;20085;-70
2022/07/31 08:54:29;;;;;;;7.75;4.90;;;;;;;;;;4976089;28;20062;-73
2022/07/31 08:56:55;;;;;;;7.63;5.28;;;;;;;;;;4976010;28;20038;-69
2022/07/31 08:59:22;;;;;;;7.50;5.40;;;;;;;;;;4976513;28;20038;-71
2022/07/31 09:01:48;;;;;;;6.78;4.97;;;;;;;;;;4975880;28;20110;-73
2022/07/31 09:04:14;;;;;;;7.10;5.28;;;;;;;;;;4975815;28;20055;-71
2022/07/31 09:06:40;;;;;;;8.40;4.93;;;;;;;;;;4958521;28;20362;-70
2022/07/31 09:09:06;;;;;;;8.23;5.25;;;;;;;;;;4958498;28;20045;-73
2022/07/31 09:11:33;;;;;;;6.88;4.70;;;;;;;;;;4958418;28;20050;-70
2022/07/31 09:14:01;;;;;;;6.78;4.90;;;;;;;;;;4975705;28;20027;-72
2022/07/31 09:16:27;;;;;;;7.43;4.50;;;;;;;;;;4958317;28;20033;-71
2022/07/31 09:18:56;;;;;;;6.63;4.85;;;;;;;;;;4975602;28;20027;-72
2022/07/31 09:21:22;;;;;;;7.45;4.90;;;;;;;;;;4975870;28;20030;-73
2022/07/31 09:23:48;;;;;;;6.68;4.65;;;;;;;;;;4976064;28;20114;-73
2022/07/31 09:26:15;;;;;;;8.48;5.45;;;;;;;;;;4975479;28;20058;-72
2022/07/31 09:28:43;;;;;;;6.07;4.38;;;;;;;;;;4976007;28;20057;-74
2022/07/31 09:31:10;;;;;;;6.32;4.70;;;;;;;;;;4975404;28;20030;-71
2022/07/31 09:33:39;;;;;;;6.05;4.50;;;;;;;;;;4975639;28;20090;-74
2022/07/31 09:36:05;;;;;;;8.38;5.07;;;;;;;;;;4975834;28;20026;-70
2022/07/31 09:38:33;;;;;;;6.97;4.68;;;;;;;;;;4975258;28;20421;-71
2022/07/31 09:41:12;;;;;;;8.75;4.82;;;;;;;;;;4975730;28;20034;-71
2022/07/31 09:43:38;;;;;;;6.30;4.88;;;;;;;;;;4975400;28;20058;-70
2022/07/31 09:46:05;;;;;;;6.72;4.85;;;;;;;;;;4957783;28;20073;-74
2022/07/31 09:48:31;;;;;;;6.05;4.68;;;;;;;;;;4975352;28;20023;-71
2022/07/31 09:50:58;;;;;;;8.32;4.85;;;;;;;;;;4975263;28;20033;-71
2022/07/31 09:53:25;;;;;;;8.27;5.15;;;;;;;;;;4975278;28;20038;-72
2022/07/31 09:55:51;;;;;;;6.95;5.00;;;;;;;;;;4974960;28;20042;-72
2022/07/31 09:58:17;;;;;;;7.18;5.00;;;;;;;;;;4974911;28;20031;-70
2022/07/31 10:00:43;;;;;;;5.35;4.50;;;;;;;;;;4974737;28;20038;-73
2022/07/31 10:03:12;;;;;;;6.28;4.70;;;;;;;;;;4974181;28;20576;-70
2022/07/31 10:05:40;;;;;;;6.83;4.77;;;;;;;;;;4974859;28;20027;-72
2022/07/31 10:08:08;;;;;;;7.57;5.57;;;;;;;;;;4974730;28;20026;-72
2022/07/31 10:10:34;;;;;;;7.45;5.00;;;;;;;;;;4974732;28;20118;-71
2022/07/31 10:13:02;;;;;;;6.38;4.78;;;;;;;;;;4974978;28;20513;-70
2022/07/31 10:15:29;;;;;;;6.53;4.75;;;;;;;;;;4974682;28;20026;-74
2022/07/31 10:17:56;;;;;;;6.18;4.90;;;;;;;;;;4975168;28;20029;-71
2022/07/31 10:20:23;;;;;;;5.93;4.43;;;;;;;;;;4974616;28;20069;-70
2022/07/31 10:22:53;;;;;;;8.57;5.30;;;;;;;;;;4974772;28;20524;-72
2022/07/31 10:25:21;;;;;;;7.22;4.57;;;;;;;;;;4974889;28;20093;-72
2022/07/31 10:27:47;;;;;;;5.90;4.47;;;;;;;;;;4974511;28;20057;-72
2022/07/31 10:30:14;;;;;;;5.63;4.10;;;;;;;;;;4974742;28;20225;-73
2022/07/31 10:32:40;;;;;;;6.90;4.47;;;;;;;;;;4957097;28;20478;-73
2022/07/31 10:35:06;;;;;;;7.50;5.32;;;;;;;;;;4974382;28;20027;-72
2022/07/31 10:37:35;;;;;;;8.48;4.72;;;;;;;;;;4974682;28;20027;-70
2022/07/31 10:40:06;;;;;;;8.27;5.93;;;;;;;;;;4974905;28;20030;-72
2022/07/31 10:42:45;;;;;;;11.02;7.65;;;;;;;;;;4974711;28;20512;-71
2022/07/31 10:45:12;;;;;;;8.93;6.28;;;;;;;;;;4974956;28;20450;-72
2022/07/31 10:47:39;;;;;;;6.10;4.63;;;;;;;;;;4974581;28;20026;-73
2022/07/31 10:50:05;;;;;;;5.38;4.07;;;;;;;;;;4974814;28;20022;-71
2022/07/31 10:52:37;;;;;;;9.10;4.97;;;;;;;;;;4974172;28;20026;-71
2022/07/31 10:55:14;;;;;;;6.82;5.03;;;;;;;;;;4974147;28;20023;-73
2022/07/31 10:57:40;;;;;;;6.18;4.35;;;;;;;;;;4974280;28;20102;-71
2022/07/31 11:00:10;;;;;;;5.88;4.55;;;;;;;;;;4974256;28;20543;-72
2022/07/31 11:02:37;;;;;;;7.07;5.18;;;;;;;;;;4974606;28;20027;-71
2022/07/31 11:05:13;;;;;;;5.80;4.63;;;;;;;;;;4973852;28;20532;-71
2022/07/31 11:07:40;;;;;;;7.35;5.25;;;;;;;;;;4974376;28;20046;-70
2022/07/31 11:10:12;;;;;;;19.40;11.45;;;;;;;;;;4974277;28;20038;-69
2022/07/31 11:12:38;;;;;;;11.40;7.40;;;;;;;;;;4974501;28;20058;-71
2022/07/31 11:15:04;;;;;;;6.55;4.80;;;;;;;;;;4976122;28;20114;-72
2022/07/31 11:17:37;;;;;;;7.28;4.75;;;;;;;;;;4977724;28;20523;-71
2022/07/31 11:20:05;;;;;;;11.20;6.80;;;;;;;;;;4977648;28;20177;-72
2022/07/31 11:22:32;;;;;;;6.43;4.95;;;;;;;;;;4960222;28;20117;-73
2022/07/31 11:24:59;;;;;;;6.38;4.60;;;;;;;;;;4978086;28;20034;-71
2022/07/31 11:27:31;;;;;;;6.85;4.53;;;;;;;;;;4977536;28;20041;-70
2022/07/31 11:30:07;;;;;;;6.90;4.78;;;;;;;;;;4977776;28;20026;-73
2022/07/31 11:32:33;;;;;;;6.05;4.35;;;;;;;;;;4977758;28;20019;-73
2022/07/31 11:34:59;;;;;;;6.50;4.43;;;;;;;;;;4977902;28;20023;-72
2022/07/31 11:37:29;;;;;;;6.13;4.30;;;;;;;;;;4977345;28;20031;-73
2022/07/31 11:39:55;;;;;;;;;;;;;;;;;;4977969;28;20027;-73
2022/07/31 11:42:22;;;;;;;9.18;4.78;;;;;;;;;;4977312;28;19941;-73
2022/07/31 11:44:48;;;;;;;6.25;4.70;;;;;;;;;;4977145;28;20034;-71
2022/07/31 11:47:14;;;;;;;5.75;4.38;;;;;;;;;;4977631;28;20102;-71
2022/07/31 11:49:40;;;;;;;7.00;4.70;;;;;;;;;;4977100;28;20023;-72
2022/07/31 11:52:07;;;;;;;4.90;4.03;;;;;;;;;;4977081;28;20074;-73
2022/07/31 11:54:34;;;;;;;7.22;4.43;;;;;;;;;;4977542;28;20042;-71
2022/07/31 11:57:00;;;;;;;7.50;4.18;;;;;;;;;;4977496;28;20027;-73
2022/07/31 11:59:34;;;;;;;6.70;4.30;;;;;;;;;;4977148;28;20054;-74
2022/07/31 12:02:03;;;;;;;7.35;4.65;;;;;;;;;;4977062;28;20050;-71
2022/07/31 12:04:30;;;;;;;6.97;4.43;;;;;;;;;;4976740;28;20082;-71
2022/07/31 12:06:56;;;;;;;6.22;4.25;;;;;;;;;;4976808;28;20057;-71
2022/07/31 12:09:23;;;;;;;6.55;4.22;;;;;;;;;;4976851;28;20027;-71
2022/07/31 12:11:49;;;;;;;7.32;4.50;;;;;;;;;;4976775;28;20023;-72
2022/07/31 12:14:15;;;;;;;5.43;3.78;;;;;;;;;;4976687;28;20080;-73
2022/07/31 12:16:42;;;;;;;7.03;4.53;;;;;;;;;;4976678;28;20023;-71
2022/07/31 12:19:08;;;;;;;5.68;4.20;;;;;;;;;;4959246;28;20374;-71
2022/07/31 12:21:35;;;;;;;6.25;4.38;;;;;;;;;;4976623;28;20030;-70
2022/07/31 12:24:01;;;;;;;6.45;4.68;;;;;;;;;;4976967;28;20041;-72
2022/07/31 12:26:29;;;;;;;6.03;4.20;;;;;;;;;;4976155;28;20101;-71
2022/07/31 12:29:02;;;;;;;7.63;4.38;;;;;;;;;;4976413;28;20029;-72
2022/07/31 12:31:29;;;;;;;5.72;3.95;;;;;;;;;;4976401;28;20061;-71
2022/07/31 12:33:55;;;;;;;8.13;4.28;;;;;;;;;;4976623;28;20050;-73
2022/07/31 12:36:21;;;;;;;7.10;4.00;;;;;;;;;;4976222;28;20033;-73
2022/07/31 12:38:57;;;;;;;4.82;3.88;;;;;;;;;;4976798;28;20058;-69
2022/07/31 12:41:23;;;;;;;5.68;4.28;;;;;;;;;;4976558;28;20424;-71
2022/07/31 12:43:49;;;;;;;6.82;3.85;;;;;;;;;;4976389;28;20469;-73
2022/07/31 12:46:16;;;;;;;8.35;4.13;;;;;;;;;;4976073;28;20022;-72
2022/07/31 12:48:42;;;;;;;6.97;3.92;;;;;;;;;;4976389;28;20109;-73
2022/07/31 12:51:09;;;;;;;4.78;3.50;;;;;;;;;;4976145;28;20081;-71
2022/07/31 12:53:36;;;;;;;5.68;3.97;;;;;;;;;;4976024;28;20536;-72
2022/07/31 12:56:02;;;;;;;5.35;3.70;;;;;;;;;;4976155;28;20022;-72
2022/07/31 12:58:28;;;;;;;4.32;3.60;;;;;;;;;;4976208;28;20062;-73
2022/07/31 13:00:55;;;;;;;7.25;3.70;;;;;;;;;;4976062;28;20081;-72
2022/07/31 13:03:22;;;;;;;6.85;4.25;;;;;;;;;;4975556;28;20125;-74
2022/07/31 13:05:48;;;;;;;6.43;3.92;;;;;;;;;;4976123;28;20026;-74
2022/07/31 13:08:14;;;;;;;6.93;4.25;;;;;;;;;;4975738;28;20110;-72
2022/07/31 13:10:40;;;;;;;7.75;4.53;;;;;;;;;;4975757;28;20050;-72
2022/07/31 13:13:06;;;;;;;6.15;4.47;;;;;;;;;;4975686;28;20030;-74
2022/07/31 13:15:32;;;;;;;6.47;4.28;;;;;;;;;;4975603;28;20106;-72
2022/07/31 13:18:00;;;;;;;7.03;4.10;;;;;;;;;;4975597;28;20035;-74
2022/07/31 13:20:27;;;;;;;8.63;4.03;;;;;;;;;;4975752;28;20074;-72
2022/07/31 13:22:53;;;;;;;5.25;3.60;;;;;;;;;;4975355;28;20034;-73
2022/07/31 13:25:19;;;;;;;5.85;3.58;;;;;;;;;;4975917;28;20054;-73
2022/07/31 13:27:45;;;;;;;4.70;3.70;;;;;;;;;;4975961;28;20481;-72
2022/07/31 13:30:12;;;;;;;5.43;3.50;;;;;;;;;;4975234;28;20023;-72
2022/07/31 13:32:38;;;;;;;4.40;3.17;;;;;;;;;;4975242;28;20138;-71
2022/07/31 13:35:05;;;;;;;7.55;4.22;;;;;;;;;;4975220;28;20030;-71
2022/07/31 13:37:31;;;;;;;4.18;3.05;;;;;;;;;;4974544;28;20057;-72
2022/07/31 13:39:57;;;;;;;3.22;2.70;;;;;;;;;;4975053;28;20030;-72
2022/07/31 13:42:23;;;;;;;6.32;3.10;;;;;;;;;;4975403;28;20030;-70
2022/07/31 13:44:49;;;;;;;4.47;3.00;;;;;;;;;;4974963;28;20508;-72
2022/07/31 13:47:15;;;;;;;5.72;3.40;;;;;;;;;;4975294;28;20031;-71
2022/07/31 13:49:41;;;;;;;4.63;3.28;;;;;;;;;;4957948;28;20041;-74
2022/07/31 13:52:07;;;;;;;5.65;3.70;;;;;;;;;;4957564;28;20023;-74
2022/07/31 13:54:33;;;;;;;7.32;3.38;;;;;;;;;;4957537;28;20130;-73
2022/07/31 13:56:59;;;;;;;4.45;3.20;;;;;;;;;;4974883;28;20038;-72
2022/07/31 13:59:28;;;;;;;4.25;3.00;;;;;;;;;;4974745;28;20101;-70
2022/07/31 14:01:54;;;;;;;4.70;3.30;;;;;;;;;;4974660;28;20394;-70
2022/07/31 14:04:20;;;;;;;4.65;3.08;;;;;;;;;;4974499;28;20042;-74
2022/07/31 14:06:46;;;;;;;3.63;2.83;;;;;;;;;;4974964;28;20030;-71
2022/07/31 14:09:13;;;;;;;5.28;3.28;;;;;;;;;;4974954;28;20056;-72
2022/07/31 14:11:39;;;;;;;3.50;2.97;;;;;;;;;;4975139;28;20485;-73
2022/07/31 14:14:05;;;;;;;4.22;3.30;;;;;;;;;;4974557;28;20034;-70
2022/07/31 14:16:31;;;;;;;3.05;2.70;;;;;;;;;;4974503;28;20030;-71
2022/07/31 14:18:57;;;;;;;3.30;2.67;;;;;;;;;;4974540;28;20027;-72
2022/07/31 14:21:23;;;;;;;4.53;2.78;;;;;;;;;;4974458;28;20394;-70
2022/07/31 14:23:48;;;;;;;4.60;2.55;;;;;;;;;;4974697;28;20027;-72
2022/07/31 14:26:16;;;;;;;2.95;2.58;;;;;;;;;;4974373;28;20030;-74
2022/07/31 14:28:42;;;;;;;4.47;2.50;;;;;;;;;;4974503;28;20098;-70
2022/07/31 14:31:10;;;;;;;5.50;2.55;;;;;;;;;;4974638;28;20130;-72
2022/07/31 14:33:36;;;;;;;3.47;2.47;;;;;;;;;;4974353;28;20101;-72
2022/07/31 14:36:02;;;;;;;2.58;2.22;;;;;;;;;;4974825;28;20027;-73
2022/07/31 14:38:28;;;;;;;3.45;2.15;;;;;;;;;;4974346;28;20034;-75
2022/07/31 14:40:54;;;;;;;3.00;2.28;;;;;;;;;;4974224;28;20480;-72